»·PEaware :: N821XP KABQ-KLAS

N821XP :: KABQ-KLAS

FLIGHT INFORMATION

Flight Status: Arrived
Operator: Privately registered:
United States
More flights under this callsign
Pilot: Andre N. (13929)
Aircraft: ECLIPSE 500
(EA50)
More flights by this aircraft type
Origin: KABQ Albuquerque Intl Sunport
United States
Destination: KLAS McCarran Intl
United States
More flights between these airports :: More routes between these airports
Route: +BOSQE3 SJN J72 PGS TYSSN5
File this flight plan on PilotEdge
Remarks:
Altitude:
(Current/Filed)
23,000ft
Speed:
(Current/Filed)
220kts
Departed: 03-May-18 09:24 AM
Arrived: 03-May-18 11:04 AM
Distance/Time
Traveled:
422nm/1:40
Distance/Time
To Go:
Arrived

Flight Plot

Page will automatically refresh every two minutes.

Flight plan parsing failed; only flown route is shown


Map Options




Map Legend


Flown Route
Filed Route
Departure Airport
Arrival Airport
Navaid (VOR, NDB)
Fix

Horizontal Profiles

Position Reports

Time Latitude Longitude Heading Altitude Ground
Speed
03-May-18 08:51 35.036099 -106.618023 0 5312ft 0kts
03-May-18 08:52 35.036099 -106.618023 132 5312ft 0kts
03-May-18 08:53 35.036099 -106.618023 132 5312ft 0kts
03-May-18 08:54 35.036099 -106.618023 132 5312ft 0kts
03-May-18 08:55 35.036099 -106.618023 132 5312ft 0kts
03-May-18 08:56 35.036099 -106.618023 132 5312ft 0kts
03-May-18 08:57 35.036099 -106.618023 132 5312ft 0kts
03-May-18 08:58 35.036099 -106.618023 132 5312ft 0kts
03-May-18 08:59 35.036099 -106.618023 132 5312ft 0kts
03-May-18 09:00 35.036099 -106.618023 132 5312ft 0kts
03-May-18 09:01 35.036099 -106.618023 132 5312ft 0kts
03-May-18 09:02 35.036099 -106.618023 132 5312ft 0kts
03-May-18 09:03 35.036099 -106.618023 132 5312ft 0kts
03-May-18 09:04 35.036099 -106.618023 132 5312ft 0kts
03-May-18 09:05 35.036099 -106.618023 132 5312ft 0kts
03-May-18 09:06 35.036099 -106.618023 132 5312ft 0kts
03-May-18 09:07 35.036099 -106.618023 132 5312ft 0kts
03-May-18 09:08 35.036099 -106.618023 132 5312ft 0kts
03-May-18 09:09 35.036099 -106.618023 132 5312ft 0kts
03-May-18 09:10 35.036099 -106.618023 132 5312ft 0kts
03-May-18 09:11 35.036099 -106.618023 132 5312ft 0kts
03-May-18 09:12 35.036099 -106.618023 132 5312ft 0kts
03-May-18 09:13 35.036004 -106.618014 189 5312ft 3kts
03-May-18 09:14 35.034855 -106.618736 199 5312ft 0kts
03-May-18 09:15 35.034855 -106.618736 199 5312ft 0kts
03-May-18 09:16 35.034855 -106.618736 198 5312ft 0kts
03-May-18 09:17 35.034637 -106.618745 169 5312ft 2kts
03-May-18 09:18 35.035060 -106.617268 45 5312ft 9kts
03-May-18 09:19 35.036573 -106.615447 43 5312ft 10kts
03-May-18 09:20 35.037724 -106.613656 110 5312ft 1kts
03-May-18 09:21 35.035925 -106.614425 295 5312ft 10kts
03-May-18 09:22 35.037473 -106.613234 128 5312ft 10kts
03-May-18 09:23 35.025865 -106.625802 223 5523ft 127kts
03-May-18 09:24 34.993206 -106.663334 222 7265ft 186kts
03-May-18 09:25 34.955084 -106.707214 222 9788ft 193kts
03-May-18 09:26 34.913416 -106.749494 214 12096ft 200kts
03-May-18 09:27 34.868132 -106.787198 217 14275ft 203kts
03-May-18 09:28 34.824148 -106.829944 222 16210ft 208kts
03-May-18 09:29 34.779506 -106.875146 222 18025ft 212kts
03-May-18 09:30 34.733698 -106.921400 223 19688ft 216kts
03-May-18 09:31 34.683836 -106.971797 222 20215ft 261kts
03-May-18 09:32 34.623731 -107.032338 222 20412ft 290kts
03-May-18 09:33 34.588647 -107.113446 251 21697ft 268kts
03-May-18 09:34 34.566215 -107.197438 254 22982ft 257kts
03-May-18 09:35 34.544389 -107.283358 254 23210ft 281kts
03-May-18 09:36 34.520844 -107.376981 254 23209ft 298kts
03-May-18 09:37 34.496355 -107.474440 254 23208ft 306kts
03-May-18 09:38 34.471446 -107.573341 254 23207ft 308kts
03-May-18 09:39 34.446862 -107.670592 253 23211ft 309kts
03-May-18 09:40 34.433915 -107.772812 268 23212ft 310kts
03-May-18 09:41 34.433034 -107.876988 269 23211ft 310kts
03-May-18 09:42 34.432606 -107.981107 269 23210ft 310kts
03-May-18 09:43 34.432237 -108.085005 269 23210ft 311kts
03-May-18 09:44 34.431828 -108.188913 269 23209ft 311kts
03-May-18 09:45 34.431332 -108.293186 269 23208ft 311kts
03-May-18 09:46 34.430758 -108.397336 269 23208ft 311kts
03-May-18 09:47 34.430110 -108.498710 269 23207ft 311kts
03-May-18 09:48 34.429388 -108.598640 270 23207ft 311kts
03-May-18 09:49 34.428613 -108.695667 269 23212ft 311kts
03-May-18 09:50 34.427695 -108.799807 269 23211ft 312kts
03-May-18 09:51 34.426683 -108.904509 269 23211ft 312kts
03-May-18 09:52 34.425624 -109.006612 269 23821ft 295kts
03-May-18 09:53 34.424502 -109.104768 269 24210ft 295kts
03-May-18 09:54 34.442245 -109.201788 287 24209ft 303kts
03-May-18 09:55 34.469893 -109.298406 288 24209ft 307kts
03-May-18 09:56 34.498305 -109.396106 288 24208ft 309kts
03-May-18 09:57 34.526818 -109.493972 288 24207ft 309kts
03-May-18 09:58 34.555326 -109.592009 288 24207ft 310kts
03-May-18 09:59 34.577442 -109.668263 288 24211ft 310kts
03-May-18 10:00 34.598889 -109.742406 288 24212ft 311kts
03-May-18 10:01 34.627215 -109.840612 288 24211ft 311kts
03-May-18 10:02 34.654391 -109.935140 288 24210ft 311kts
03-May-18 10:03 34.682537 -110.033390 288 24228ft 311kts
03-May-18 10:04 34.710619 -110.131731 288 24236ft 309kts
03-May-18 10:06 34.738336 -110.229196 288 24219ft 309kts
03-May-18 10:07 34.766102 -110.327157 288 24208ft 309kts
03-May-18 10:08 34.793854 -110.425394 288 24207ft 308kts
03-May-18 10:09 34.821415 -110.523299 288 24206ft 307kts
03-May-18 10:10 34.848624 -110.620308 288 24206ft 305kts
03-May-18 10:11 34.866324 -110.683591 288 24211ft 304kts
03-May-18 10:12 34.892342 -110.776853 288 24211ft 304kts
03-May-18 10:13 34.919229 -110.873586 288 24210ft 304kts
03-May-18 10:14 34.945788 -110.969458 288 24209ft 304kts
03-May-18 10:15 34.972559 -111.066450 288 24209ft 304kts
03-May-18 10:16 34.998894 -111.162196 288 24208ft 304kts
03-May-18 10:17 35.025272 -111.258434 288 24232ft 303kts
03-May-18 10:18 35.051735 -111.355327 288 24234ft 304kts
03-May-18 10:19 35.078160 -111.452431 288 24233ft 304kts
03-May-18 10:20 35.102662 -111.542778 288 24234ft 304kts
03-May-18 10:21 35.123502 -111.619842 288 24235ft 304kts
03-May-18 10:22 35.147808 -111.710031 288 24240ft 305kts
03-May-18 10:23 35.174101 -111.807913 288 24239ft 306kts
03-May-18 10:24 35.199961 -111.904533 288 24239ft 306kts
03-May-18 10:25 35.226185 -112.002891 288 24238ft 307kts
03-May-18 10:26 35.252462 -112.101772 288 24237ft 308kts
03-May-18 10:27 35.278751 -112.201119 288 24237ft 308kts
03-May-18 10:28 35.304765 -112.299927 289 24236ft 310kts
03-May-18 10:29 35.331054 -112.400042 290 24239ft 320kts
03-May-18 10:30 35.358343 -112.504329 291 24238ft 325kts
03-May-18 10:31 35.385871 -112.609652 290 24238ft 328kts
03-May-18 10:32 35.411131 -112.706969 290 24237ft 329kts
03-May-18 10:33 35.438664 -112.813487 290 24238ft 329kts
03-May-18 10:34 35.466167 -112.920223 290 24237ft 328kts
03-May-18 10:35 35.493491 -113.026726 290 24237ft 327kts
03-May-18 10:36 35.520738 -113.133378 290 24237ft 327kts
03-May-18 10:37 35.547749 -113.239540 290 24237ft 327kts
03-May-18 10:38 35.574770 -113.346185 290 24237ft 327kts
03-May-18 10:39 35.601696 -113.452852 290 24236ft 327kts
03-May-18 10:40 35.625611 -113.553578 284 24237ft 328kts
03-May-18 10:41 35.641491 -113.662847 282 24236ft 329kts
03-May-18 10:42 35.657514 -113.774766 279 22637ft 327kts
03-May-18 10:43 35.672829 -113.882699 277 20626ft 320kts
03-May-18 10:44 35.687955 -113.991844 281 18629ft 327kts
03-May-18 10:45 35.702800 -114.098645 281 16622ft 300kts
03-May-18 10:46 35.716183 -114.195334 281 14728ft 279kts
03-May-18 10:47 35.729057 -114.287893 281 12924ft 272kts
03-May-18 10:48 35.741734 -114.376691 287 11994ft 248kts
03-May-18 10:49 35.797723 -114.413387 343 12000ft 238kts
03-May-18 10:50 35.863562 -114.441507 341 10916ft 258kts
03-May-18 10:51 35.930735 -114.472024 340 9411ft 257kts
03-May-18 10:52 35.991335 -114.500176 340 9978ft 221kts
03-May-18 10:53 36.038672 -114.546235 288 9999ft 239kts
03-May-18 10:54 36.061422 -114.624009 291 8992ft 240kts
03-May-18 10:55 36.083174 -114.696649 291 8004ft 224kts
03-May-18 10:56 36.102728 -114.761967 291 8000ft 215kts
03-May-18 10:57 36.121443 -114.832869 281 7847ft 227kts
03-May-18 10:58 36.133485 -114.911371 281 6964ft 235kts
03-May-18 10:59 36.145600 -114.990032 281 6463ft 231kts
03-May-18 11:00 36.157625 -115.066229 281 5960ft 219kts
03-May-18 11:01 36.154094 -115.136081 203 4246ft 189kts
03-May-18 11:02 36.109978 -115.150066 206 2469ft 139kts
03-May-18 11:03 36.081726 -115.166731 205 2114ft 43kts
03-May-18 11:04 36.078063 -115.169790 294 2114ft 0kts
03-May-18 11:05 36.078949 -115.170682 18 2114ft 10kts
03-May-18 11:06 36.081190 -115.169456 359 2114ft 7kts
03-May-18 11:07 36.081842 -115.170775 8 2114ft 2kts
03-May-18 11:08 36.081857 -115.170772 9 2114ft 0kts

Navigation Log

Ident Type
Flight plan parsing failed, navigation log unavailable